Time;durP1;ratioP1;P1;durP2;ratioP2;P2;SDS_P1;SDS_P2;PMS_P1;PMS_P2;Temp;Humidity;BMP_temperature;BMP_pressure;BME280_temperature;BME280_humidity;BME280_pressure;Samples;Min_cycle;Max_cycle;Signal;HPM_P1;HPM_P2
2021/11/01 00:00:57;;;;;;;20.90;19.40;;;;;;;;;;4956610;29;20421;-94
2021/11/01 00:03:24;;;;;;;20.63;19.00;;;;;;;;;;4956291;29;20450;-94
2021/11/01 00:05:52;;;;;;;19.77;18.13;;;;;;;;;;4956169;29;20581;-94
2021/11/01 00:08:21;;;;;;;19.93;18.40;;;;;;;;;;4956513;29;20454;-95
2021/11/01 00:10:48;;;;;;;20.20;18.90;;;;;;;;;;4956612;29;20418;-95
2021/11/01 00:13:16;;;;;;;19.53;17.93;;;;;;;;;;4956252;29;20414;-94
2021/11/01 00:15:43;;;;;;;19.73;18.00;;;;;;;;;;4956483;29;20422;-94
2021/11/01 00:18:11;;;;;;;19.63;18.33;;;;;;;;;;4956335;29;20754;-94
2021/11/01 00:20:38;;;;;;;18.63;17.63;;;;;;;;;;4956047;29;20473;-94
2021/11/01 00:23:06;;;;;;;18.90;17.43;;;;;;;;;;4956148;29;20454;-94
2021/11/01 00:25:34;;;;;;;19.47;17.93;;;;;;;;;;4939511;29;20422;-96
2021/11/01 00:28:03;;;;;;;19.00;17.87;;;;;;;;;;4956104;29;20438;-95
2021/11/01 00:30:30;;;;;;;18.10;17.10;;;;;;;;;;4956242;29;20446;-94
2021/11/01 00:32:58;;;;;;;19.07;17.83;;;;;;;;;;4956220;29;20500;-95
2021/11/01 00:35:25;;;;;;;19.60;18.10;;;;;;;;;;4955915;29;20448;-93
2021/11/01 00:37:52;;;;;;;19.20;17.40;;;;;;;;;;4956080;29;20470;-94
2021/11/01 00:40:20;;;;;;;19.17;17.30;;;;;;;;;;4956227;29;20573;-94
2021/11/01 00:42:49;;;;;;;19.63;17.80;;;;;;;;;;4956018;29;20889;-95
2021/11/01 00:45:16;;;;;;;19.43;18.03;;;;;;;;;;4956002;29;20825;-95
2021/11/01 00:47:44;;;;;;;20.20;18.57;;;;;;;;;;4955812;29;20514;-94
2021/11/01 00:50:11;;;;;;;23.97;19.17;;;;;;;;;;4956340;28;20449;-95
2021/11/01 00:52:39;;;;;;;21.70;19.83;;;;;;;;;;4956205;29;20431;-95
2021/11/01 00:55:10;;;;;;;19.13;17.57;;;;;;;;;;4956196;29;20418;-94
2021/11/01 00:57:38;;;;;;;18.93;17.43;;;;;;;;;;4938465;28;20451;-94
2021/11/01 01:00:08;;;;;;;19.03;17.57;;;;;;;;;;4958794;29;20524;-95
2021/11/01 01:02:35;;;;;;;19.30;18.10;;;;;;;;;;4959543;29;20425;-95
2021/11/01 01:05:03;;;;;;;19.27;17.77;;;;;;;;;;4959978;29;20439;-94
2021/11/01 01:07:31;;;;;;;20.00;18.33;;;;;;;;;;4958506;29;20426;-93
2021/11/01 01:09:58;;;;;;;20.30;18.30;;;;;;;;;;4960118;29;20409;-94
2021/11/01 01:12:26;;;;;;;20.10;18.30;;;;;;;;;;4959952;29;20425;-94
2021/11/01 01:14:56;;;;;;;19.37;17.97;;;;;;;;;;4959665;29;20414;-95
2021/11/01 01:17:26;;;;;;;20.70;18.17;;;;;;;;;;4960208;29;20446;-95
2021/11/01 01:19:58;;;;;;;21.07;18.97;;;;;;;;;;4959415;29;20499;-96
2021/11/01 01:22:31;;;;;;;20.37;18.77;;;;;;;;;;4959510;29;20435;-95
2021/11/01 01:25:13;;;;;;;20.60;18.90;;;;;;;;;;4959638;29;20446;-94
2021/11/01 01:27:40;;;;;;;20.37;18.83;;;;;;;;;;4958602;29;20409;-94
2021/11/01 01:30:08;;;;;;;20.17;18.57;;;;;;;;;;4959712;29;20421;-95
2021/11/01 01:32:37;;;;;;;20.30;18.60;;;;;;;;;;4959377;29;20414;-95
2021/11/01 01:35:05;;;;;;;19.20;17.70;;;;;;;;;;4959476;29;20517;-95
2021/11/01 01:37:33;;;;;;;22.43;19.23;;;;;;;;;;4959180;28;20442;-94
2021/11/01 01:40:00;;;;;;;19.37;17.40;;;;;;;;;;4959254;29;20493;-95
2021/11/01 01:42:28;;;;;;;20.27;18.60;;;;;;;;;;4942628;29;20435;-95
2021/11/01 01:44:55;;;;;;;20.07;18.27;;;;;;;;;;4959004;29;20449;-95
2021/11/01 01:47:22;;;;;;;20.23;18.77;;;;;;;;;;4958939;29;20559;-95
2021/11/01 01:49:51;;;;;;;21.43;19.43;;;;;;;;;;4959167;28;20471;-95
2021/11/01 01:52:21;;;;;;;19.87;18.17;;;;;;;;;;4959035;29;20413;-95
2021/11/01 01:54:49;;;;;;;20.43;18.67;;;;;;;;;;4958852;29;20438;-95
2021/11/01 01:57:17;;;;;;;18.93;17.60;;;;;;;;;;4959037;29;21004;-95
2021/11/01 01:59:44;;;;;;;19.50;18.07;;;;;;;;;;4958703;29;20869;-95
2021/11/01 02:02:12;;;;;;;20.10;18.20;;;;;;;;;;4958886;29;20458;-95
2021/11/01 02:04:39;;;;;;;19.53;18.03;;;;;;;;;;4958728;29;20410;-95
2021/11/01 02:07:13;;;;;;;20.00;17.90;;;;;;;;;;4958929;28;20446;-95
2021/11/01 02:09:44;;;;;;;19.47;17.77;;;;;;;;;;4958892;28;20442;-94
2021/11/01 02:12:14;;;;;;;20.20;18.50;;;;;;;;;;4958438;29;20445;-95
2021/11/01 02:14:43;;;;;;;21.23;19.50;;;;;;;;;;4958544;29;20474;-94
2021/11/01 02:17:11;;;;;;;18.90;17.63;;;;;;;;;;4942196;29;20443;-95
2021/11/01 02:19:45;;;;;;;19.63;18.00;;;;;;;;;;4958578;29;20549;-95
2021/11/01 02:22:15;;;;;;;19.10;17.90;;;;;;;;;;4958398;29;20433;-95
2021/11/01 02:24:45;;;;;;;20.30;18.70;;;;;;;;;;4958371;29;20438;-95
2021/11/01 02:27:15;;;;;;;19.00;17.60;;;;;;;;;;4958381;29;20932;-94
2021/11/01 02:29:44;;;;;;;19.33;17.77;;;;;;;;;;4958581;29;20436;-94
2021/11/01 02:32:12;;;;;;;19.77;18.13;;;;;;;;;;4958411;29;20844;-94
2021/11/01 02:34:39;;;;;;;20.07;18.20;;;;;;;;;;4957922;29;20517;-94
2021/11/01 02:37:07;;;;;;;20.30;18.63;;;;;;;;;;4958526;29;20418;-95
2021/11/01 02:39:45;;;;;;;20.60;18.77;;;;;;;;;;4957790;29;20498;-95
2021/11/01 02:42:15;;;;;;;20.47;18.67;;;;;;;;;;4957939;29;20917;-95
2021/11/01 02:44:50;;;;;;;20.60;18.47;;;;;;;;;;4958140;29;20417;-95
2021/11/01 02:47:17;;;;;;;20.83;18.97;;;;;;;;;;4957953;29;20893;-95
2021/11/01 02:49:45;;;;;;;21.40;19.27;;;;;;;;;;4957927;28;20489;-95
2021/11/01 02:52:12;;;;;;;19.30;17.80;;;;;;;;;;4957806;29;20421;-95
2021/11/01 02:54:40;;;;;;;19.10;17.70;;;;;;;;;;4958154;29;20526;-95
2021/11/01 02:57:07;;;;;;;20.00;18.07;;;;;;;;;;4957860;29;20443;-95
2021/11/01 02:59:36;;;;;;;19.73;18.40;;;;;;;;;;4957997;29;20445;-95
2021/11/01 03:02:04;;;;;;;20.30;18.60;;;;;;;;;;4957988;29;20451;-95
2021/11/01 03:04:31;;;;;;;19.93;18.53;;;;;;;;;;4957740;29;20841;-95
2021/11/01 03:06:59;;;;;;;20.00;18.37;;;;;;;;;;4957722;29;20922;-95
2021/11/01 03:09:28;;;;;;;20.93;18.83;;;;;;;;;;4957560;29;20435;-95
2021/11/01 03:11:56;;;;;;;21.27;19.20;;;;;;;;;;4940630;29;20441;-95
2021/11/01 03:14:28;;;;;;;22.10;19.70;;;;;;;;;;4957836;29;20447;-95
2021/11/01 03:16:58;;;;;;;21.20;19.00;;;;;;;;;;4957715;29;20440;-96
2021/11/01 03:19:29;;;;;;;20.97;18.93;;;;;;;;;;4957569;29;20421;-95
2021/11/01 03:21:58;;;;;;;21.47;19.20;;;;;;;;;;4956842;28;20927;-95
2021/11/01 03:24:25;;;;;;;22.20;20.00;;;;;;;;;;4957749;29;20414;-94
2021/11/01 03:26:54;;;;;;;20.23;18.20;;;;;;;;;;4940254;29;20440;-94
2021/11/01 03:29:22;;;;;;;20.93;18.90;;;;;;;;;;4957191;29;20445;-95
2021/11/01 03:31:50;;;;;;;19.80;18.60;;;;;;;;;;4957120;29;20434;-95
2021/11/01 03:34:21;;;;;;;20.50;18.90;;;;;;;;;;4957234;29;20442;-95
2021/11/01 03:36:49;;;;;;;20.00;18.50;;;;;;;;;;4956975;29;21231;-95
2021/11/01 03:39:17;;;;;;;21.07;18.83;;;;;;;;;;4957313;29;20429;-96
2021/11/01 03:41:45;;;;;;;21.17;19.00;;;;;;;;;;4940162;29;21018;-95
2021/11/01 03:44:17;;;;;;;21.17;18.90;;;;;;;;;;4957554;29;20844;-95
2021/11/01 03:46:51;;;;;;;20.00;18.00;;;;;;;;;;4961604;29;20578;-96
2021/11/01 03:49:20;;;;;;;20.10;18.40;;;;;;;;;;4946704;29;20855;-96
2021/11/01 03:51:50;;;;;;;20.33;18.83;;;;;;;;;;4963064;29;20447;-96
2021/11/01 03:54:19;;;;;;;21.07;19.17;;;;;;;;;;4963360;29;20779;-96
2021/11/01 03:56:47;;;;;;;20.80;18.77;;;;;;;;;;4964968;29;20438;-96
2021/11/01 03:59:15;;;;;;;22.57;19.17;;;;;;;;;;4964983;29;20430;-96
2021/11/01 04:01:45;;;;;;;21.40;19.30;;;;;;;;;;4949325;29;20479;-96
2021/11/01 04:04:12;;;;;;;21.13;19.40;;;;;;;;;;4965587;29;20417;-96
2021/11/01 04:06:42;;;;;;;21.03;19.13;;;;;;;;;;4966769;29;20458;-96
2021/11/01 04:09:09;;;;;;;19.60;18.20;;;;;;;;;;4963834;29;20556;-96
2021/11/01 04:11:37;;;;;;;20.37;18.77;;;;;;;;;;4929815;29;20916;-96
2021/11/01 04:14:11;;;;;;;20.70;19.03;;;;;;;;;;4962868;29;20753;-96
2021/11/01 04:16:41;;;;;;;20.07;18.63;;;;;;;;;;4962838;29;20467;-96
2021/11/01 04:19:31;;;;;;;20.90;19.17;;;;;;;;;;4962163;29;20425;-96
2021/11/01 04:22:01;;;;;;;20.03;18.33;;;;;;;;;;4963828;29;20807;-96
2021/11/01 04:24:30;;;;;;;20.63;19.10;;;;;;;;;;4945670;29;20455;-96
2021/11/01 04:26:58;;;;;;;20.03;18.33;;;;;;;;;;4963517;29;20498;-96
2021/11/01 04:29:29;;;;;;;20.53;18.53;;;;;;;;;;4965802;29;20453;-96
2021/11/01 04:32:05;;;;;;;21.07;19.03;;;;;;;;;;4964716;29;20451;-96
2021/11/01 04:34:35;;;;;;;19.20;17.80;;;;;;;;;;4963373;28;20518;-96
2021/11/01 04:37:06;;;;;;;19.67;18.03;;;;;;;;;;4946663;29;20447;-96
2021/11/01 04:39:42;;;;;;;19.60;17.70;;;;;;;;;;4963472;29;20425;-96
2021/11/01 04:53:41;;;;;;;20.33;18.07;;;;;;;;;;4964289;29;20427;-96
2021/11/01 04:56:09;;;;;;;20.90;18.90;;;;;;;;;;4963480;29;20549;-96
2021/11/01 04:58:37;;;;;;;24.10;18.10;;;;;;;;;;4947251;29;20462;-96
2021/11/01 05:01:04;;;;;;;21.20;19.53;;;;;;;;;;4964542;29;20457;-96
2021/11/01 05:03:36;;;;;;;20.27;18.60;;;;;;;;;;4962532;29;20466;-96
2021/11/01 05:06:04;;;;;;;19.20;17.73;;;;;;;;;;4962659;29;20433;-96
2021/11/01 05:08:39;;;;;;;20.10;18.47;;;;;;;;;;4961023;29;20459;-96
2021/11/01 05:11:16;;;;;;;18.67;17.47;;;;;;;;;;4945264;29;20441;-96
2021/11/01 05:13:44;;;;;;;20.70;19.10;;;;;;;;;;4961928;29;20423;-96
2021/11/01 05:16:16;;;;;;;19.67;18.20;;;;;;;;;;4962759;28;20462;-96
2021/11/01 05:18:49;;;;;;;20.87;19.00;;;;;;;;;;4963300;29;20413;-96
2021/11/01 05:24:03;;;;;;;19.23;17.53;;;;;;;;;;4948070;29;20454;-96
2021/11/01 05:26:49;;;;;;;19.60;17.93;;;;;;;;;;4944844;29;20463;-96
2021/11/01 05:29:17;;;;;;;19.97;18.20;;;;;;;;;;4962195;29;20413;-96
2021/11/01 05:31:47;;;;;;;18.93;17.30;;;;;;;;;;4963089;29;20447;-96
2021/11/01 05:34:17;;;;;;;20.30;18.70;;;;;;;;;;4962574;29;20445;-96
2021/11/01 05:36:45;;;;;;;19.87;18.27;;;;;;;;;;4945973;29;20466;-96
2021/11/01 05:39:13;;;;;;;19.10;17.77;;;;;;;;;;4964243;29;20881;-96
2021/11/01 05:41:42;;;;;;;21.10;19.40;;;;;;;;;;4964273;29;20486;-96
2021/11/01 05:44:10;;;;;;;20.40;18.57;;;;;;;;;;4963869;28;20451;-96
2021/11/01 05:46:39;;;;;;;19.87;18.27;;;;;;;;;;4967817;29;20518;-96
2021/11/01 05:49:07;;;;;;;19.83;18.50;;;;;;;;;;4965443;28;20453;-96
2021/11/01 05:51:36;;;;;;;20.60;18.87;;;;;;;;;;4967011;29;20821;-96
2021/11/01 05:54:06;;;;;;;20.13;18.43;;;;;;;;;;4966849;29;20478;-96
2021/11/01 05:56:44;;;;;;;20.03;18.30;;;;;;;;;;4965516;29;20910;-96
2021/11/01 06:07:40;;;;;;;20.20;18.70;;;;;;;;;;4965911;29;20915;-96
2021/11/01 06:10:11;;;;;;;21.40;19.70;;;;;;;;;;4966794;29;20513;-96
2021/11/01 06:15:27;;;;;;;19.80;18.27;;;;;;;;;;4966523;29;20497;-96
2021/11/01 06:17:55;;;;;;;19.43;17.73;;;;;;;;;;4967856;29;20414;-96
2021/11/01 06:20:22;;;;;;;19.43;18.07;;;;;;;;;;4949237;29;20497;-96
2021/11/01 06:22:51;;;;;;;18.43;17.33;;;;;;;;;;4966875;29;20440;-96
2021/11/01 06:25:19;;;;;;;20.17;18.53;;;;;;;;;;4967013;29;20461;-96
2021/11/01 06:27:47;;;;;;;19.37;17.90;;;;;;;;;;4967399;29;20420;-96
2021/11/01 06:30:22;;;;;;;19.40;17.60;;;;;;;;;;4966744;29;20486;-96
2021/11/01 06:33:10;;;;;;;19.60;18.10;;;;;;;;;;4967384;29;20436;-96
2021/11/01 06:52:59;;;;;;;19.27;17.97;;;;;;;;;;4926560;29;20759;-85
2021/11/01 07:14:59;;;;;;;18.93;17.73;;;;;;;;;;4869493;29;20438;-96
2021/11/01 07:17:36;;;;;;;19.43;17.90;;;;;;;;;;4881288;29;20414;-96
2021/11/01 07:20:24;;;;;;;18.20;17.10;;;;;;;;;;4881635;29;20459;-96
2021/11/01 07:23:32;;;;;;;23.13;21.23;;;;;;;;;;4880287;29;20507;-96
2021/11/01 08:21:11;;;;;;;20.93;19.40;;;;;;;;;;4920178;29;20473;-96
2021/11/01 08:23:57;;;;;;;20.57;18.90;;;;;;;;;;4918182;29;20450;-95
2021/11/01 08:37:48;;;;;;;20.87;18.67;;;;;;;;;;5081406;23;20492;-96
2021/11/01 08:40:30;;;;;;;19.23;18.13;;;;;;;;;;4981074;28;20438;-95
2021/11/01 08:51:48;;;;;;;18.93;17.53;;;;;;;;;;4965271;28;20423;-96
2021/11/01 09:22:16;;;;;;;19.47;17.47;;;;;;;;;;4882940;29;21078;-96
2021/11/01 09:24:47;;;;;;;19.90;18.80;;;;;;;;;;4866458;29;20439;-92
2021/11/01 09:27:18;;;;;;;20.10;18.70;;;;;;;;;;4882045;29;20541;-93
2021/11/01 09:29:58;;;;;;;21.33;19.93;;;;;;;;;;4883743;29;20450;-94
2021/11/01 09:38:29;;;;;;;20.37;18.80;;;;;;;;;;4882052;29;20502;-96
2021/11/01 09:41:04;;;;;;;21.17;19.77;;;;;;;;;;4882437;29;20938;-95
2021/11/01 09:43:32;;;;;;;19.83;18.40;;;;;;;;;;4882291;29;20488;-95
2021/11/01 09:46:00;;;;;;;20.50;19.30;;;;;;;;;;4882092;29;20500;-95
2021/11/01 09:48:27;;;;;;;20.87;19.60;;;;;;;;;;4882283;29;20454;-96
2021/11/01 09:50:55;;;;;;;20.23;18.93;;;;;;;;;;4882765;29;20441;-96
2021/11/01 09:53:27;;;;;;;20.90;19.70;;;;;;;;;;4920504;29;20445;-96
2021/11/01 09:56:06;;;;;;;22.10;20.60;;;;;;;;;;4919829;29;20455;-96
2021/11/01 10:01:21;;;;;;;20.73;19.17;;;;;;;;;;4920829;29;20474;-94
2021/11/01 10:03:50;;;;;;;19.07;17.97;;;;;;;;;;4919395;29;20543;-93
2021/11/01 10:06:20;;;;;;;19.23;17.90;;;;;;;;;;4919353;29;20566;-93
2021/11/01 10:08:50;;;;;;;19.80;18.50;;;;;;;;;;4919307;29;20797;-93
2021/11/01 10:11:18;;;;;;;19.67;18.30;;;;;;;;;;4925851;28;20416;-94
2021/11/01 10:13:48;;;;;;;19.20;17.90;;;;;;;;;;4998008;28;20520;-93
2021/11/01 10:19:13;;;;;;;19.13;17.73;;;;;;;;;;4997745;28;20495;-94
2021/11/01 10:21:50;;;;;;;19.87;18.37;;;;;;;;;;4997582;28;20571;-93
2021/11/01 10:24:25;;;;;;;20.40;18.60;;;;;;;;;;4997530;28;20411;-94
2021/11/01 10:26:54;;;;;;;19.20;18.20;;;;;;;;;;4994092;28;20851;-94
2021/11/01 10:29:22;;;;;;;20.40;18.90;;;;;;;;;;4999331;28;20804;-87
2021/11/01 10:31:50;;;;;;;21.33;19.80;;;;;;;;;;4995996;28;20507;-89
2021/11/01 10:34:28;;;;;;;19.47;18.37;;;;;;;;;;4997092;28;20449;-90
2021/11/01 10:37:00;;;;;;;21.43;19.63;;;;;;;;;;4997527;28;20488;-96
2021/11/01 10:39:29;;;;;;;20.07;18.70;;;;;;;;;;4993111;28;20964;-88
2021/11/01 10:42:05;;;;;;;19.93;18.73;;;;;;;;;;4997531;28;20460;-90
2021/11/01 11:12:53;;;;;;;21.40;19.73;;;;;;;;;;4936611;29;20431;-92
2021/11/01 11:15:21;;;;;;;20.07;18.87;;;;;;;;;;4936470;29;20425;-92
2021/11/01 11:18:04;;;;;;;20.10;18.80;;;;;;;;;;4936714;29;20538;-91
2021/11/01 11:48:51;;;;;;;20.67;19.00;;;;;;;;;;4917159;29;20440;-91
2021/11/01 11:51:27;;;;;;;20.70;19.40;;;;;;;;;;4916696;29;20552;-92
2021/11/01 11:53:58;;;;;;;22.23;20.80;;;;;;;;;;4916785;29;20961;-90
2021/11/01 11:56:29;;;;;;;20.57;18.87;;;;;;;;;;4916813;29;20447;-91
2021/11/01 11:58:59;;;;;;;20.50;19.23;;;;;;;;;;4916994;29;20416;-91
2021/11/01 12:01:29;;;;;;;19.70;18.60;;;;;;;;;;4916558;29;20449;-91
2021/11/01 12:07:02;;;;;;;20.67;19.27;;;;;;;;;;4916768;29;20468;-90
2021/11/01 12:09:36;;;;;;;20.07;18.97;;;;;;;;;;4901398;29;20456;-90
2021/11/01 12:17:49;;;;;;;21.33;19.77;;;;;;;;;;4916449;29;20839;-90
2021/11/01 12:20:16;;;;;;;20.53;19.17;;;;;;;;;;4916330;29;20520;-93
2021/11/01 12:22:49;;;;;;;20.17;19.07;;;;;;;;;;4985584;28;20588;-92
2021/11/01 12:25:22;;;;;;;21.30;19.50;;;;;;;;;;4994481;28;20432;-92
2021/11/01 12:28:00;;;;;;;19.97;18.77;;;;;;;;;;4994417;28;20435;-92
2021/11/01 12:30:38;;;;;;;20.60;19.30;;;;;;;;;;4977535;28;20479;-92
2021/11/01 12:33:08;;;;;;;21.17;19.60;;;;;;;;;;4994981;28;20457;-91
2021/11/01 12:35:42;;;;;;;21.00;19.80;;;;;;;;;;4994868;28;20489;-91
2021/11/01 12:38:13;;;;;;;21.27;19.90;;;;;;;;;;4977019;28;20457;-92
2021/11/01 12:43:56;;;;;;;22.20;20.50;;;;;;;;;;4994391;28;20471;-91
2021/11/01 12:58:08;;;;;;;21.57;20.17;;;;;;;;;;4822915;29;21012;-90
2021/11/01 13:00:41;;;;;;;20.13;18.83;;;;;;;;;;4823553;29;20472;-90
2021/11/01 13:03:15;;;;;;;22.00;20.60;;;;;;;;;;4818862;29;20534;-90
2021/11/01 13:05:51;;;;;;;21.17;19.87;;;;;;;;;;4823280;29;20530;-91
2021/11/01 13:08:24;;;;;;;21.57;20.27;;;;;;;;;;4823219;29;20447;-90
2021/11/01 13:11:01;;;;;;;22.60;21.20;;;;;;;;;;4823405;29;20453;-90
2021/11/01 13:19:30;;;;;;;21.03;19.73;;;;;;;;;;5112008;28;20437;-90
2021/11/01 13:22:05;;;;;;;22.07;20.53;;;;;;;;;;5112472;28;20464;-90
2021/11/01 13:24:39;;;;;;;22.73;21.00;;;;;;;;;;5111761;28;20444;-90
2021/11/01 13:27:27;;;;;;;22.80;21.17;;;;;;;;;;5110639;28;20489;-90
2021/11/01 13:38:26;;;;;;;20.40;19.30;;;;;;;;;;5109636;28;20466;-89
2021/11/01 13:40:54;;;;;;;21.70;20.17;;;;;;;;;;5111654;28;20464;-90
2021/11/01 13:43:29;;;;;;;20.40;19.30;;;;;;;;;;5111934;27;20457;-89
2021/11/01 13:46:02;;;;;;;20.93;19.63;;;;;;;;;;5111772;28;20480;-89
2021/11/01 13:48:34;;;;;;;20.87;19.67;;;;;;;;;;5111344;28;20905;-89
2021/11/01 13:51:03;;;;;;;21.33;19.97;;;;;;;;;;5111698;27;20460;-89
2021/11/01 13:53:34;;;;;;;22.87;21.13;;;;;;;;;;5111465;28;20515;-90
2021/11/01 13:56:16;;;;;;;20.37;19.07;;;;;;;;;;5111244;28;20515;-92
2021/11/01 13:58:54;;;;;;;20.47;19.30;;;;;;;;;;5111428;27;20434;-91
2021/11/01 14:01:38;;;;;;;20.90;19.60;;;;;;;;;;5111580;27;20524;-91
2021/11/01 14:12:40;;;;;;;21.30;20.00;;;;;;;;;;5110956;28;20536;-92
2021/11/01 14:15:12;;;;;;;20.60;19.50;;;;;;;;;;5110683;28;20804;-95
2021/11/01 14:18:16;;;;;;;21.87;20.17;;;;;;;;;;5112448;28;20513;-96
2021/11/01 14:29:12;;;;;;;21.50;20.30;;;;;;;;;;5106764;28;20428;-93
2021/11/01 15:02:27;;;;;;;21.67;20.37;;;;;;;;;;5080951;28;20520;-96
2021/11/01 15:13:33;;;;;;;21.13;19.83;;;;;;;;;;5096530;28;20433;-93
2021/11/01 15:16:18;;;;;;;21.70;20.10;;;;;;;;;;5095680;28;20520;-94
2021/11/01 15:19:02;;;;;;;21.73;20.43;;;;;;;;;;5096484;28;20411;-93
2021/11/01 15:21:35;;;;;;;21.63;20.27;;;;;;;;;;5097546;28;20427;-92
2021/11/01 15:41:28;;;;;;;21.00;19.90;;;;;;;;;;5096669;28;20403;-93
2021/11/01 16:17:18;;;;;;;22.60;20.87;;;;;;;;;;5095650;28;20542;-94
2021/11/01 16:19:50;;;;;;;21.70;20.40;;;;;;;;;;5095548;28;20411;-94
2021/11/01 16:22:18;;;;;;;21.27;19.73;;;;;;;;;;5095847;28;20436;-95
2021/11/01 16:24:54;;;;;;;21.30;20.00;;;;;;;;;;5094566;28;20445;-89
2021/11/01 16:27:24;;;;;;;21.90;20.70;;;;;;;;;;5088830;28;20435;-92
2021/11/01 16:29:57;;;;;;;21.63;20.43;;;;;;;;;;5085074;28;20432;-91
2021/11/01 16:32:33;;;;;;;20.87;19.57;;;;;;;;;;5077373;28;20489;-92
2021/11/01 16:35:06;;;;;;;21.13;19.83;;;;;;;;;;5074755;28;20428;-93
2021/11/01 16:37:39;;;;;;;21.67;20.37;;;;;;;;;;5074876;28;20514;-92
2021/11/01 16:40:08;;;;;;;20.03;18.87;;;;;;;;;;5074703;28;20493;-92
2021/11/01 16:42:40;;;;;;;21.63;20.13;;;;;;;;;;5074872;28;20483;-94
2021/11/01 16:45:14;;;;;;;21.40;20.10;;;;;;;;;;5074945;28;20396;-94
2021/11/01 16:47:46;;;;;;;20.93;19.50;;;;;;;;;;5075255;28;20436;-93
2021/11/01 16:50:16;;;;;;;21.10;19.90;;;;;;;;;;5074187;28;20829;-95
2021/11/01 16:52:44;;;;;;;21.53;20.20;;;;;;;;;;5076322;28;20428;-91
2021/11/01 16:55:16;;;;;;;21.30;20.10;;;;;;;;;;5085191;28;20484;-91
2021/11/01 16:57:55;;;;;;;20.93;19.57;;;;;;;;;;5094007;28;20448;-91
2021/11/01 17:00:29;;;;;;;21.77;20.17;;;;;;;;;;5094577;28;20519;-91
2021/11/01 17:03:26;;;;;;;20.73;19.53;;;;;;;;;;5093187;28;20429;-92
2021/11/01 17:06:06;;;;;;;20.27;19.10;;;;;;;;;;5094637;28;20429;-92
2021/11/01 17:22:42;;;;;;;21.30;20.10;;;;;;;;;;5010189;28;20448;-91
2021/11/01 17:25:14;;;;;;;23.40;21.70;;;;;;;;;;4993520;28;20439;-90
2021/11/01 17:30:56;;;;;;;22.10;20.70;;;;;;;;;;4970815;28;20911;-93
2021/11/01 17:36:24;;;;;;;22.70;21.10;;;;;;;;;;4971890;28;20468;-90
2021/11/01 18:42:56;;;;;;;21.87;20.57;;;;;;;;;;5083881;28;20457;-93
2021/11/01 18:51:03;;;;;;;23.07;21.30;;;;;;;;;;5081627;28;20408;-93
2021/11/01 18:53:34;;;;;;;22.27;20.97;;;;;;;;;;5084153;28;20818;-93
2021/11/01 18:56:04;;;;;;;22.20;20.90;;;;;;;;;;5083682;28;20779;-94
2021/11/01 18:58:34;;;;;;;22.20;20.80;;;;;;;;;;5083283;28;20510;-94
2021/11/01 19:01:10;;;;;;;22.90;21.30;;;;;;;;;;5084236;28;20449;-92
2021/11/01 19:03:42;;;;;;;23.70;21.57;;;;;;;;;;5083724;28;20461;-93
2021/11/01 19:06:21;;;;;;;23.77;22.17;;;;;;;;;;5081569;28;20467;-92
2021/11/01 19:09:07;;;;;;;23.23;21.83;;;;;;;;;;5082330;28;20476;-93
2021/11/01 20:04:25;;;;;;;21.93;20.23;;;;;;;;;;5081862;28;20460;-92
2021/11/01 21:25:25;;;;;;;22.70;21.00;;;;;;;;;;4860887;29;20440;-92
2021/11/01 21:27:54;;;;;;;21.50;19.83;;;;;;;;;;4864668;29;20436;-91
2021/11/01 21:30:22;;;;;;;22.50;21.10;;;;;;;;;;4863898;29;20474;-91
2021/11/01 21:32:49;;;;;;;22.80;20.60;;;;;;;;;;4864720;29;20463;-91
2021/11/01 21:35:18;;;;;;;21.43;20.00;;;;;;;;;;4936122;29;20440;-92
2021/11/01 21:37:46;;;;;;;22.10;20.70;;;;;;;;;;4937416;29;20483;-92
2021/11/01 21:40:15;;;;;;;22.97;21.40;;;;;;;;;;4938872;29;20463;-92
2021/11/01 21:42:44;;;;;;;21.90;20.50;;;;;;;;;;4938809;29;20867;-92
2021/11/01 21:45:13;;;;;;;22.83;21.00;;;;;;;;;;4938672;29;20425;-91
2021/11/01 21:47:41;;;;;;;21.47;20.17;;;;;;;;;;4938873;29;20548;-92
2021/11/01 21:50:08;;;;;;;22.40;20.87;;;;;;;;;;4938790;29;20463;-93
2021/11/01 21:52:38;;;;;;;22.83;20.60;;;;;;;;;;4961419;28;20462;-92
2021/11/01 21:55:06;;;;;;;22.43;20.73;;;;;;;;;;5036815;28;20450;-91
2021/11/01 21:57:39;;;;;;;22.77;21.07;;;;;;;;;;5035717;28;20457;-92
2021/11/01 22:00:19;;;;;;;22.30;20.90;;;;;;;;;;5035799;28;20964;-91
2021/11/01 22:33:34;;;;;;;21.77;20.30;;;;;;;;;;5096891;28;20440;-85
2021/11/01 22:41:57;;;;;;;22.40;20.70;;;;;;;;;;5096745;28;20573;-86
2021/11/01 22:58:14;;;;;;;22.30;20.88;;;;;;;;;;5096344;28;20204;-86
2021/11/01 23:00:46;;;;;;;21.03;19.53;;;;;;;;;;5096489;28;20558;-86
2021/11/01 23:03:17;;;;;;;22.20;20.60;;;;;;;;;;5096231;28;20471;-85
2021/11/01 23:06:06;;;;;;;21.20;19.80;;;;;;;;;;5096266;28;20226;-85
2021/11/01 23:33:24;;;;;;;21.03;19.27;;;;;;;;;;5095437;28;20749;-85
2021/11/01 23:35:53;;;;;;;20.80;19.70;;;;;;;;;;5095599;28;20542;-85
2021/11/01 23:38:20;;;;;;;21.50;20.20;;;;;;;;;;5095697;28;20462;-85
2021/11/01 23:40:49;;;;;;;20.37;19.27;;;;;;;;;;5095473;28;20918;-85
2021/11/01 23:43:17;;;;;;;21.58;20.08;;;;;;;;;;5095637;28;20964;-85
2021/11/01 23:45:45;;;;;;;21.70;20.27;;;;;;;;;;5095327;28;20284;-85
2021/11/01 23:48:13;;;;;;;20.53;19.10;;;;;;;;;;5095204;28;21064;-86
2021/11/01 23:50:41;;;;;;;20.90;19.50;;;;;;;;;;5095602;28;20415;-86
2021/11/01 23:53:11;;;;;;;21.00;19.50;;;;;;;;;;5095177;28;20440;-86
2021/11/01 23:55:39;;;;;;;21.47;19.97;;;;;;;;;;5095519;28;20431;-85
2021/11/01 23:58:08;;;;;;;21.10;19.63;;;;;;;;;;5094999;28;20553;-85
